sensor_id;sensor_type;location;lat;lon;timestamp;temperature;humidity
49052;DHT22;34866;48.670;18.260;2023-05-07T00:04:19;231.10;2252.80
49052;DHT22;34866;48.670;18.260;2023-05-07T00:07:15;231.20;2252.80
49052;DHT22;34866;48.670;18.260;2023-05-07T00:10:06;231.10;2252.80
49052;DHT22;34866;48.670;18.260;2023-05-07T00:12:41;231.20;2252.80
49052;DHT22;34866;48.670;18.260;2023-05-07T00:15:29;231.10;2252.80
49052;DHT22;34866;48.670;18.260;2023-05-07T00:18:23;231.00;2252.80
49052;DHT22;34866;48.670;18.260;2023-05-07T00:22:04;231.00;2252.80
49052;DHT22;34866;48.670;18.260;2023-05-07T00:25:12;231.00;2252.80
49052;DHT22;34866;48.670;18.260;2023-05-07T00:32:04;230.60;2252.80
49052;DHT22;34866;48.670;18.260;2023-05-07T00:35:28;230.70;2252.80
49052;DHT22;34866;48.670;18.260;2023-05-07T00:39:06;230.70;2252.80
49052;DHT22;34866;48.670;18.260;2023-05-07T00:45:40;230.70;2252.80
49052;DHT22;34866;48.670;18.260;2023-05-07T00:48:27;230.70;2252.80
49052;DHT22;34866;48.670;18.260;2023-05-07T00:51:30;230.70;2252.80
49052;DHT22;34866;48.670;18.260;2023-05-07T00:58:38;230.40;2252.80
49052;DHT22;34866;48.670;18.260;2023-05-07T01:15:43;230.60;2252.80
49052;DHT22;34866;48.670;18.260;2023-05-07T01:18:19;230.50;2252.80
49052;DHT22;34866;48.670;18.260;2023-05-07T01:20:45;230.50;2252.80
49052;DHT22;34866;48.670;18.260;2023-05-07T01:23:37;230.60;2252.80
49052;DHT22;34866;48.670;18.260;2023-05-07T01:26:30;230.50;2252.80
49052;DHT22;34866;48.670;18.260;2023-05-07T01:29:24;230.60;2252.80
49052;DHT22;34866;48.670;18.260;2023-05-07T01:31:58;230.70;2252.80
49052;DHT22;34866;48.670;18.260;2023-05-07T01:37:47;230.90;2252.80
49052;DHT22;34866;48.670;18.260;2023-05-07T01:41:03;230.90;2252.80
49052;DHT22;34866;48.670;18.260;2023-05-07T01:43:34;231.00;2252.80
49052;DHT22;34866;48.670;18.260;2023-05-07T01:50:11;231.00;2252.80
49052;DHT22;34866;48.670;18.260;2023-05-07T01:53:39;231.00;2252.80
49052;DHT22;34866;48.670;18.260;2023-05-07T01:56:46;231.00;2252.80
49052;DHT22;34866;48.670;18.260;2023-05-07T01:59:38;231.10;2252.80
49052;DHT22;34866;48.670;18.260;2023-05-07T02:02:48;231.10;2252.80
49052;DHT22;34866;48.670;18.260;2023-05-07T02:09:08;231.20;2252.80
49052;DHT22;34866;48.670;18.260;2023-05-07T02:11:58;231.30;2252.80
49052;DHT22;34866;48.670;18.260;2023-05-07T02:14:43;256.00;2252.80
49052;DHT22;34866;48.670;18.260;2023-05-07T02:17:09;256.00;2252.80
49052;DHT22;34866;48.670;18.260;2023-05-07T02:20:00;256.10;2252.80
49052;DHT22;34866;48.670;18.260;2023-05-07T02:22:55;256.00;2252.80
49052;DHT22;34866;48.670;18.260;2023-05-07T02:25:57;256.10;2252.80
49052;DHT22;34866;48.670;18.260;2023-05-07T02:29:03;256.10;2252.80
49052;DHT22;34866;48.670;18.260;2023-05-07T02:35:36;256.10;2252.80
49052;DHT22;34866;48.670;18.260;2023-05-07T02:41:23;231.30;2252.80
49052;DHT22;34866;48.670;18.260;2023-05-07T02:44:52;231.30;2252.80
49052;DHT22;34866;48.670;18.260;2023-05-07T02:48:17;231.20;2252.80
49052;DHT22;34866;48.670;18.260;2023-05-07T02:58:01;231.00;2252.80
49052;DHT22;34866;48.670;18.260;2023-05-07T03:01:12;231.00;2252.80
49052;DHT22;34866;48.670;18.260;2023-05-07T03:04:31;231.00;2252.80
49052;DHT22;34866;48.670;18.260;2023-05-07T03:10:59;230.70;2252.80
49052;DHT22;34866;48.670;18.260;2023-05-07T03:34:55;230.80;2252.80
49052;DHT22;34866;48.670;18.260;2023-05-07T03:38:20;230.60;2252.80
49052;DHT22;34866;48.670;18.260;2023-05-07T03:41:29;230.60;2252.80
49052;DHT22;34866;48.670;18.260;2023-05-07T03:47:20;230.60;2252.80
49052;DHT22;34866;48.670;18.260;2023-05-07T03:50:48;230.50;2252.80
49052;DHT22;34866;48.670;18.260;2023-05-07T03:56:55;230.50;2252.80
49052;DHT22;34866;48.670;18.260;2023-05-07T04:00:06;230.40;2252.80
49052;DHT22;34866;48.670;18.260;2023-05-07T04:03:25;230.40;2252.80
49052;DHT22;34866;48.670;18.260;2023-05-07T04:10:06;230.40;2252.80
49052;DHT22;34866;48.670;18.260;2023-05-07T04:13:18;230.40;2252.80
49052;DHT22;34866;48.670;18.260;2023-05-07T04:19:57;230.70;2252.80
49052;DHT22;34866;48.670;18.260;2023-05-07T04:22:29;230.70;2252.80
49052;DHT22;34866;48.670;18.260;2023-05-07T04:28:48;230.70;2252.80
49052;DHT22;34866;48.670;18.260;2023-05-07T04:32:12;230.90;2252.80
49052;DHT22;34866;48.670;18.260;2023-05-07T04:42:26;231.20;2252.80
49052;DHT22;34866;48.670;18.260;2023-05-07T04:45:53;231.30;2252.80
49052;DHT22;34866;48.670;18.260;2023-05-07T04:49:46;256.00;2252.80
49052;DHT22;34866;48.670;18.260;2023-05-07T05:00:33;256.60;2252.80
49052;DHT22;34866;48.670;18.260;2023-05-07T05:16:54;281.70;2278.40
49052;DHT22;34866;48.670;18.260;2023-05-07T05:49:47;307.90;2304.00
49052;DHT22;34866;48.670;18.260;2023-05-07T06:06:41;333.40;2329.60
49052;DHT22;34866;48.670;18.260;2023-05-07T06:15:05;358.60;2329.60
49052;DHT22;34866;48.670;18.260;2023-05-07T06:27:22;358.70;2329.60
49052;DHT22;34866;48.670;18.260;2023-05-07T06:29:57;358.80;2329.60
49052;DHT22;34866;48.670;18.260;2023-05-07T06:32:25;358.80;2329.60
49052;DHT22;34866;48.670;18.260;2023-05-07T06:35:12;358.90;2329.60
49052;DHT22;34866;48.670;18.260;2023-05-07T06:37:38;359.00;2329.60
49052;DHT22;34866;48.670;18.260;2023-05-07T06:40:08;359.20;1971.20
49052;DHT22;34866;48.670;18.260;2023-05-07T06:42:52;359.20;2278.40
49052;DHT22;34866;48.670;18.260;2023-05-07T06:45:21;359.20;2329.60
49052;DHT22;34866;48.670;18.260;2023-05-07T06:47:49;359.30;2329.60
49052;DHT22;34866;48.670;18.260;2023-05-07T06:50:16;384.10;1971.20
49052;DHT22;34866;48.670;18.260;2023-05-07T06:52:42;384.20;2329.60
49052;DHT22;34866;48.670;18.260;2023-05-07T06:55:08;384.20;2278.40
49052;DHT22;34866;48.670;18.260;2023-05-07T06:57:34;384.00;2329.60
49052;DHT22;34866;48.670;18.260;2023-05-07T07:00:00;384.10;2329.60
49052;DHT22;34866;48.670;18.260;2023-05-07T07:02:26;384.10;2329.60
49052;DHT22;34866;48.670;18.260;2023-05-07T07:04:51;384.30;2329.60
49052;DHT22;34866;48.670;18.260;2023-05-07T07:07:17;384.30;2329.60
49052;DHT22;34866;48.670;18.260;2023-05-07T07:09:43;384.60;1843.20
49052;DHT22;34866;48.670;18.260;2023-05-07T07:12:08;384.60;1587.20
49052;DHT22;34866;48.670;18.260;2023-05-07T07:14:34;384.70;1152.00
49052;DHT22;34866;48.670;18.260;2023-05-07T07:17:00;384.90;742.40
49052;DHT22;34866;48.670;18.260;2023-05-07T07:19:26;384.90;665.60
49052;DHT22;34866;48.670;18.260;2023-05-07T07:21:51;384.70;128.00
49052;DHT22;34866;48.670;18.260;2023-05-07T07:24:17;384.80;128.00
49052;DHT22;34866;48.670;18.260;2023-05-07T07:26:46;384.90;128.00
49052;DHT22;34866;48.670;18.260;2023-05-07T07:29:12;409.60;128.00
49052;DHT22;34866;48.670;18.260;2023-05-07T07:31:38;409.80;128.00
49052;DHT22;34866;48.670;18.260;2023-05-07T07:34:03;409.80;128.00
49052;DHT22;34866;48.670;18.260;2023-05-07T07:36:29;409.70;128.00
49052;DHT22;34866;48.670;18.260;2023-05-07T07:38:55;409.70;128.00
49052;DHT22;34866;48.670;18.260;2023-05-07T07:41:21;384.90;128.00
49052;DHT22;34866;48.670;18.260;2023-05-07T07:43:46;384.70;128.00
49052;DHT22;34866;48.670;18.260;2023-05-07T07:46:12;409.60;128.00
49052;DHT22;34866;48.670;18.260;2023-05-07T07:48:38;409.60;128.00
49052;DHT22;34866;48.670;18.260;2023-05-07T07:51:04;410.00;128.00
49052;DHT22;34866;48.670;18.260;2023-05-07T07:53:30;410.00;128.00
49052;DHT22;34866;48.670;18.260;2023-05-07T07:55:55;410.00;128.00
49052;DHT22;34866;48.670;18.260;2023-05-07T07:58:21;410.10;128.00
49052;DHT22;34866;48.670;18.260;2023-05-07T08:00:48;410.20;128.00
49052;DHT22;34866;48.670;18.260;2023-05-07T08:03:14;410.20;128.00
49052;DHT22;34866;48.670;18.260;2023-05-07T08:05:42;410.20;128.00
49052;DHT22;34866;48.670;18.260;2023-05-07T08:08:08;410.40;128.00
49052;DHT22;34866;48.670;18.260;2023-05-07T08:10:33;410.40;128.00
49052;DHT22;34866;48.670;18.260;2023-05-07T08:13:00;410.20;128.00
49052;DHT22;34866;48.670;18.260;2023-05-07T08:15:26;410.10;128.00
49052;DHT22;34866;48.670;18.260;2023-05-07T08:17:52;410.40;128.00
49052;DHT22;34866;48.670;18.260;2023-05-07T08:20:17;435.30;128.00
49052;DHT22;34866;48.670;18.260;2023-05-07T08:22:43;435.40;128.00
49052;DHT22;34866;48.670;18.260;2023-05-07T08:25:09;435.30;128.00
49052;DHT22;34866;48.670;18.260;2023-05-07T08:27:35;435.30;128.00
49052;DHT22;34866;48.670;18.260;2023-05-07T08:30:01;435.50;128.00
49052;DHT22;34866;48.670;18.260;2023-05-07T08:32:26;435.30;128.00
49052;DHT22;34866;48.670;18.260;2023-05-07T08:34:53;435.30;128.00
49052;DHT22;34866;48.670;18.260;2023-05-07T08:37:20;435.30;128.00
49052;DHT22;34866;48.670;18.260;2023-05-07T08:39:46;435.40;128.00
49052;DHT22;34866;48.670;18.260;2023-05-07T08:42:12;435.50;128.00
49052;DHT22;34866;48.670;18.260;2023-05-07T08:44:45;435.70;128.00
49052;DHT22;34866;48.670;18.260;2023-05-07T08:47:12;435.40;128.00
49052;DHT22;34866;48.670;18.260;2023-05-07T08:49:38;435.70;128.00
49052;DHT22;34866;48.670;18.260;2023-05-07T08:52:07;435.80;128.00
49052;DHT22;34866;48.670;18.260;2023-05-07T08:54:37;435.50;128.00
49052;DHT22;34866;48.670;18.260;2023-05-07T08:57:03;435.80;128.00
49052;DHT22;34866;48.670;18.260;2023-05-07T08:59:48;435.70;614.40
49052;DHT22;34866;48.670;18.260;2023-05-07T09:02:14;435.60;128.00
49052;DHT22;34866;48.670;18.260;2023-05-07T09:04:41;435.60;128.00
49052;DHT22;34866;48.670;18.260;2023-05-07T09:07:08;435.70;128.00
49052;DHT22;34866;48.670;18.260;2023-05-07T09:09:35;436.10;128.00
49052;DHT22;34866;48.670;18.260;2023-05-07T09:12:01;436.10;179.20
49052;DHT22;34866;48.670;18.260;2023-05-07T09:14:29;436.10;153.60
49052;DHT22;34866;48.670;18.260;2023-05-07T09:16:56;435.90;153.60
49052;DHT22;34866;48.670;18.260;2023-05-07T09:19:26;436.10;128.00
49052;DHT22;34866;48.670;18.260;2023-05-07T09:22:01;436.00;128.00
49052;DHT22;34866;48.670;18.260;2023-05-07T09:24:29;436.00;128.00
49052;DHT22;34866;48.670;18.260;2023-05-07T09:26:59;461.20;512.00
49052;DHT22;34866;48.670;18.260;2023-05-07T09:29:26;460.90;128.00
49052;DHT22;34866;48.670;18.260;2023-05-07T09:31:54;461.00;128.00
49052;DHT22;34866;48.670;18.260;2023-05-07T09:34:20;460.90;128.00
49052;DHT22;34866;48.670;18.260;2023-05-07T09:36:46;461.00;128.00
49052;DHT22;34866;48.670;18.260;2023-05-07T09:39:12;461.00;128.00
49052;DHT22;34866;48.670;18.260;2023-05-07T09:41:47;461.10;128.00
49052;DHT22;34866;48.670;18.260;2023-05-07T09:44:15;461.20;128.00
49052;DHT22;34866;48.670;18.260;2023-05-07T09:46:43;461.20;128.00
49052;DHT22;34866;48.670;18.260;2023-05-07T09:49:17;461.20;128.00
49052;DHT22;34866;48.670;18.260;2023-05-07T09:51:52;461.20;128.00
49052;DHT22;34866;48.670;18.260;2023-05-07T09:54:18;460.90;128.00
49052;DHT22;34866;48.670;18.260;2023-05-07T09:56:45;460.90;128.00
49052;DHT22;34866;48.670;18.260;2023-05-07T09:59:13;461.00;128.00
49052;DHT22;34866;48.670;18.260;2023-05-07T10:01:41;461.20;128.00
49052;DHT22;34866;48.670;18.260;2023-05-07T10:04:09;461.00;128.00
49052;DHT22;34866;48.670;18.260;2023-05-07T10:06:36;460.90;128.00
49052;DHT22;34866;48.670;18.260;2023-05-07T10:09:04;461.10;128.00
49052;DHT22;34866;48.670;18.260;2023-05-07T10:11:33;461.30;128.00
49052;DHT22;34866;48.670;18.260;2023-05-07T10:14:00;461.20;128.00
49052;DHT22;34866;48.670;18.260;2023-05-07T10:16:31;461.50;128.00
49052;DHT22;34866;48.670;18.260;2023-05-07T10:18:59;461.40;128.00
49052;DHT22;34866;48.670;18.260;2023-05-07T10:21:27;461.50;128.00
49052;DHT22;34866;48.670;18.260;2023-05-07T10:24:10;461.50;128.00
49052;DHT22;34866;48.670;18.260;2023-05-07T10:26:44;461.30;128.00
49052;DHT22;34866;48.670;18.260;2023-05-07T10:29:39;486.40;128.00
49052;DHT22;34866;48.670;18.260;2023-05-07T10:32:47;461.60;128.00
49052;DHT22;34866;48.670;18.260;2023-05-07T10:35:22;461.20;128.00
49052;DHT22;34866;48.670;18.260;2023-05-07T10:37:48;461.30;128.00
49052;DHT22;34866;48.670;18.260;2023-05-07T10:40:16;461.20;128.00
49052;DHT22;34866;48.670;18.260;2023-05-07T10:42:59;461.50;128.00
49052;DHT22;34866;48.670;18.260;2023-05-07T10:45:26;461.60;128.00
49052;DHT22;34866;48.670;18.260;2023-05-07T10:48:14;461.70;128.00
49052;DHT22;34866;48.670;18.260;2023-05-07T10:50:43;461.40;128.00
49052;DHT22;34866;48.670;18.260;2023-05-07T10:53:41;461.60;128.00
49052;DHT22;34866;48.670;18.260;2023-05-07T10:56:25;461.50;128.00
49052;DHT22;34866;48.670;18.260;2023-05-07T10:58:51;461.50;128.00
49052;DHT22;34866;48.670;18.260;2023-05-07T11:01:56;461.70;128.00
49052;DHT22;34866;48.670;18.260;2023-05-07T11:04:23;486.40;128.00
49052;DHT22;34866;48.670;18.260;2023-05-07T11:15:10;461.70;128.00
49052;DHT22;34866;48.670;18.260;2023-05-07T11:17:56;486.60;128.00
49052;DHT22;34866;48.670;18.260;2023-05-07T11:20:51;486.50;128.00
49052;DHT22;34866;48.670;18.260;2023-05-07T11:26:21;486.80;128.00
49052;DHT22;34866;48.670;18.260;2023-05-07T11:28:47;486.70;128.00
49052;DHT22;34866;48.670;18.260;2023-05-07T11:31:21;487.00;128.00
49052;DHT22;34866;48.670;18.260;2023-05-07T11:33:47;486.60;128.00
49052;DHT22;34866;48.670;18.260;2023-05-07T11:36:13;486.70;128.00
49052;DHT22;34866;48.670;18.260;2023-05-07T11:38:46;486.80;128.00
49052;DHT22;34866;48.670;18.260;2023-05-07T11:41:12;486.60;128.00
49052;DHT22;34866;48.670;18.260;2023-05-07T11:43:38;486.90;128.00
49052;DHT22;34866;48.670;18.260;2023-05-07T11:46:10;487.20;128.00
49052;DHT22;34866;48.670;18.260;2023-05-07T11:48:58;486.90;128.00
49052;DHT22;34866;48.670;18.260;2023-05-07T11:51:26;486.70;128.00
49052;DHT22;34866;48.670;18.260;2023-05-07T11:53:53;486.50;128.00
49052;DHT22;34866;48.670;18.260;2023-05-07T11:56:19;486.70;128.00
49052;DHT22;34866;48.670;18.260;2023-05-07T11:58:46;487.10;128.00
49052;DHT22;34866;48.670;18.260;2023-05-07T12:01:15;512.00;128.00
49052;DHT22;34866;48.670;18.260;2023-05-07T12:03:43;487.10;128.00
49052;DHT22;34866;48.670;18.260;2023-05-07T12:06:10;486.60;128.00
49052;DHT22;34866;48.670;18.260;2023-05-07T12:08:41;512.00;128.00
49052;DHT22;34866;48.670;18.260;2023-05-07T12:11:12;512.00;128.00
49052;DHT22;34866;48.670;18.260;2023-05-07T12:13:38;486.90;128.00
49052;DHT22;34866;48.670;18.260;2023-05-07T12:16:07;486.90;128.00
49052;DHT22;34866;48.670;18.260;2023-05-07T12:18:34;487.00;128.00
49052;DHT22;34866;48.670;18.260;2023-05-07T12:21:00;487.10;128.00
49052;DHT22;34866;48.670;18.260;2023-05-07T12:23:26;486.60;128.00
49052;DHT22;34866;48.670;18.260;2023-05-07T12:25:52;487.10;128.00
49052;DHT22;34866;48.670;18.260;2023-05-07T12:28:19;486.80;128.00
49052;DHT22;34866;48.670;18.260;2023-05-07T12:30:48;486.80;128.00
49052;DHT22;34866;48.670;18.260;2023-05-07T12:33:18;487.10;128.00
49052;DHT22;34866;48.670;18.260;2023-05-07T12:35:47;486.70;128.00
49052;DHT22;34866;48.670;18.260;2023-05-07T12:38:15;486.60;128.00
49052;DHT22;34866;48.670;18.260;2023-05-07T12:40:54;486.50;128.00
49052;DHT22;34866;48.670;18.260;2023-05-07T12:43:25;486.70;128.00
49052;DHT22;34866;48.670;18.260;2023-05-07T12:45:53;486.80;128.00
49052;DHT22;34866;48.670;18.260;2023-05-07T12:48:20;486.80;128.00
49052;DHT22;34866;48.670;18.260;2023-05-07T12:50:56;486.60;128.00
49052;DHT22;34866;48.670;18.260;2023-05-07T12:53:24;486.50;128.00
49052;DHT22;34866;48.670;18.260;2023-05-07T12:55:53;486.80;128.00
49052;DHT22;34866;48.670;18.260;2023-05-07T12:58:28;486.50;128.00
49052;DHT22;34866;48.670;18.260;2023-05-07T13:00:56;486.50;128.00
49052;DHT22;34866;48.670;18.260;2023-05-07T13:03:36;486.40;128.00
49052;DHT22;34866;48.670;18.260;2023-05-07T13:06:04;486.40;128.00
49052;DHT22;34866;48.670;18.260;2023-05-07T13:08:31;486.40;128.00
49052;DHT22;34866;48.670;18.260;2023-05-07T13:11:02;486.70;128.00
49052;DHT22;34866;48.670;18.260;2023-05-07T13:13:33;486.70;128.00
49052;DHT22;34866;48.670;18.260;2023-05-07T13:15:59;461.70;128.00
49052;DHT22;34866;48.670;18.260;2023-05-07T13:18:25;461.70;128.00
49052;DHT22;34866;48.670;18.260;2023-05-07T13:20:53;461.50;128.00
49052;DHT22;34866;48.670;18.260;2023-05-07T13:23:19;461.50;128.00
49052;DHT22;34866;48.670;18.260;2023-05-07T13:25:47;461.60;128.00
49052;DHT22;34866;48.670;18.260;2023-05-07T13:28:13;461.50;128.00
49052;DHT22;34866;48.670;18.260;2023-05-07T13:30:41;461.50;128.00
49052;DHT22;34866;48.670;18.260;2023-05-07T13:33:08;461.40;128.00
49052;DHT22;34866;48.670;18.260;2023-05-07T13:35:35;461.10;128.00
49052;DHT22;34866;48.670;18.260;2023-05-07T13:38:04;461.20;128.00
49052;DHT22;34866;48.670;18.260;2023-05-07T13:40:30;461.20;128.00
49052;DHT22;34866;48.670;18.260;2023-05-07T13:42:57;461.20;128.00
49052;DHT22;34866;48.670;18.260;2023-05-07T13:45:24;461.20;128.00
49052;DHT22;34866;48.670;18.260;2023-05-07T13:47:51;461.20;128.00
49052;DHT22;34866;48.670;18.260;2023-05-07T13:50:17;461.30;128.00
49052;DHT22;34866;48.670;18.260;2023-05-07T13:52:44;461.20;128.00
49052;DHT22;34866;48.670;18.260;2023-05-07T13:55:19;461.20;128.00
49052;DHT22;34866;48.670;18.260;2023-05-07T13:57:47;461.40;128.00
49052;DHT22;34866;48.670;18.260;2023-05-07T14:00:13;461.10;128.00
49052;DHT22;34866;48.670;18.260;2023-05-07T14:02:40;460.90;128.00
49052;DHT22;34866;48.670;18.260;2023-05-07T14:05:06;436.00;128.00
49052;DHT22;34866;48.670;18.260;2023-05-07T14:07:32;460.90;128.00
49052;DHT22;34866;48.670;18.260;2023-05-07T14:09:58;460.90;128.00
49052;DHT22;34866;48.670;18.260;2023-05-07T14:12:24;436.10;128.00
49052;DHT22;34866;48.670;18.260;2023-05-07T14:14:49;461.20;128.00
49052;DHT22;34866;48.670;18.260;2023-05-07T14:17:16;461.30;128.00
49052;DHT22;34866;48.670;18.260;2023-05-07T14:19:43;461.00;128.00
49052;DHT22;34866;48.670;18.260;2023-05-07T14:22:15;460.80;128.00
49052;DHT22;34866;48.670;18.260;2023-05-07T14:24:40;436.00;128.00
49052;DHT22;34866;48.670;18.260;2023-05-07T14:27:06;435.90;128.00
49052;DHT22;34866;48.670;18.260;2023-05-07T14:29:32;461.10;128.00
49052;DHT22;34866;48.670;18.260;2023-05-07T14:31:58;461.40;128.00
49052;DHT22;34866;48.670;18.260;2023-05-07T14:34:23;435.90;128.00
49052;DHT22;34866;48.670;18.260;2023-05-07T14:36:49;435.70;128.00
49052;DHT22;34866;48.670;18.260;2023-05-07T14:39:15;435.80;128.00
49052;DHT22;34866;48.670;18.260;2023-05-07T14:41:41;435.80;128.00
49052;DHT22;34866;48.670;18.260;2023-05-07T14:44:06;435.90;128.00
49052;DHT22;34866;48.670;18.260;2023-05-07T14:46:32;460.80;128.00
49052;DHT22;34866;48.670;18.260;2023-05-07T14:49:02;436.10;128.00
49052;DHT22;34866;48.670;18.260;2023-05-07T14:51:27;436.00;128.00
49052;DHT22;34866;48.670;18.260;2023-05-07T14:53:54;435.90;128.00
49052;DHT22;34866;48.670;18.260;2023-05-07T14:56:20;435.70;128.00
49052;DHT22;34866;48.670;18.260;2023-05-07T14:58:47;435.90;128.00
49052;DHT22;34866;48.670;18.260;2023-05-07T15:01:14;435.90;128.00
49052;DHT22;34866;48.670;18.260;2023-05-07T15:03:41;435.70;128.00
49052;DHT22;34866;48.670;18.260;2023-05-07T15:06:07;435.70;128.00
49052;DHT22;34866;48.670;18.260;2023-05-07T15:08:34;435.50;128.00
49052;DHT22;34866;48.670;18.260;2023-05-07T15:11:00;435.60;128.00
49052;DHT22;34866;48.670;18.260;2023-05-07T15:13:26;435.60;128.00
49052;DHT22;34866;48.670;18.260;2023-05-07T15:15:53;435.50;128.00
49052;DHT22;34866;48.670;18.260;2023-05-07T15:18:18;435.60;128.00
49052;DHT22;34866;48.670;18.260;2023-05-07T15:20:44;435.50;128.00
49052;DHT22;34866;48.670;18.260;2023-05-07T15:23:14;435.50;128.00
49052;DHT22;34866;48.670;18.260;2023-05-07T15:25:40;435.50;128.00
49052;DHT22;34866;48.670;18.260;2023-05-07T15:28:06;435.40;128.00
49052;DHT22;34866;48.670;18.260;2023-05-07T15:30:32;435.40;128.00
49052;DHT22;34866;48.670;18.260;2023-05-07T15:33:01;435.70;128.00
49052;DHT22;34866;48.670;18.260;2023-05-07T15:35:27;435.70;128.00
49052;DHT22;34866;48.670;18.260;2023-05-07T15:37:53;435.50;128.00
49052;DHT22;34866;48.670;18.260;2023-05-07T15:40:22;435.70;128.00
49052;DHT22;34866;48.670;18.260;2023-05-07T15:42:48;435.30;128.00
49052;DHT22;34866;48.670;18.260;2023-05-07T15:45:13;410.40;128.00
49052;DHT22;34866;48.670;18.260;2023-05-07T15:47:39;410.50;128.00
49052;DHT22;34866;48.670;18.260;2023-05-07T15:50:06;410.40;128.00
49052;DHT22;34866;48.670;18.260;2023-05-07T15:52:32;410.20;128.00
49052;DHT22;34866;48.670;18.260;2023-05-07T15:54:58;410.30;128.00
49052;DHT22;34866;48.670;18.260;2023-05-07T15:57:25;410.10;128.00
49052;DHT22;34866;48.670;18.260;2023-05-07T15:59:54;409.80;128.00
49052;DHT22;34866;48.670;18.260;2023-05-07T16:02:26;409.90;128.00
49052;DHT22;34866;48.670;18.260;2023-05-07T16:04:52;409.60;128.00
49052;DHT22;34866;48.670;18.260;2023-05-07T16:07:18;409.80;128.00
49052;DHT22;34866;48.670;18.260;2023-05-07T16:09:44;409.80;128.00
49052;DHT22;34866;48.670;18.260;2023-05-07T16:12:10;409.60;128.00
49052;DHT22;34866;48.670;18.260;2023-05-07T16:14:56;384.80;128.00
49052;DHT22;34866;48.670;18.260;2023-05-07T16:17:23;384.40;128.00
49052;DHT22;34866;48.670;18.260;2023-05-07T16:19:52;384.20;128.00
49052;DHT22;34866;48.670;18.260;2023-05-07T16:22:18;384.40;128.00
49052;DHT22;34866;48.670;18.260;2023-05-07T16:24:44;384.40;128.00
49052;DHT22;34866;48.670;18.260;2023-05-07T16:27:10;359.30;128.00
49052;DHT22;34866;48.670;18.260;2023-05-07T16:29:36;359.30;128.00
49052;DHT22;34866;48.670;18.260;2023-05-07T16:32:02;359.00;128.00
49052;DHT22;34866;48.670;18.260;2023-05-07T16:34:27;358.90;128.00
49052;DHT22;34866;48.670;18.260;2023-05-07T16:36:53;358.70;128.00
49052;DHT22;34866;48.670;18.260;2023-05-07T16:39:19;358.70;128.00
49052;DHT22;34866;48.670;18.260;2023-05-07T16:41:44;358.60;128.00
49052;DHT22;34866;48.670;18.260;2023-05-07T16:44:13;358.40;128.00
49052;DHT22;34866;48.670;18.260;2023-05-07T16:46:39;333.60;128.00
49052;DHT22;34866;48.670;18.260;2023-05-07T16:49:05;333.50;128.00
49052;DHT22;34866;48.670;18.260;2023-05-07T16:51:32;333.50;128.00
49052;DHT22;34866;48.670;18.260;2023-05-07T16:54:05;333.50;128.00
49052;DHT22;34866;48.670;18.260;2023-05-07T16:56:31;333.40;128.00
49052;DHT22;34866;48.670;18.260;2023-05-07T16:58:57;333.20;486.40
49052;DHT22;34866;48.670;18.260;2023-05-07T17:01:24;333.20;409.60
49052;DHT22;34866;48.670;18.260;2023-05-07T17:03:50;333.10;179.20
49052;DHT22;34866;48.670;18.260;2023-05-07T17:06:15;333.00;128.00
49052;DHT22;34866;48.670;18.260;2023-05-07T17:08:42;333.00;640.00
49052;DHT22;34866;48.670;18.260;2023-05-07T17:11:07;333.00;128.00
49052;DHT22;34866;48.670;18.260;2023-05-07T17:13:33;333.00;128.00
49052;DHT22;34866;48.670;18.260;2023-05-07T17:15:59;332.90;128.00
49052;DHT22;34866;48.670;18.260;2023-05-07T17:18:25;332.90;128.00
49052;DHT22;34866;48.670;18.260;2023-05-07T17:20:51;332.80;128.00
49052;DHT22;34866;48.670;18.260;2023-05-07T17:23:17;308.10;128.00
49052;DHT22;34866;48.670;18.260;2023-05-07T17:25:44;308.10;128.00
49052;DHT22;34866;48.670;18.260;2023-05-07T17:28:13;308.00;128.00
49052;DHT22;34866;48.670;18.260;2023-05-07T17:30:39;307.90;128.00
49052;DHT22;34866;48.670;18.260;2023-05-07T17:33:05;307.70;128.00
49052;DHT22;34866;48.670;18.260;2023-05-07T17:35:31;307.90;128.00
49052;DHT22;34866;48.670;18.260;2023-05-07T17:38:01;307.80;128.00
49052;DHT22;34866;48.670;18.260;2023-05-07T17:40:27;307.50;128.00
49052;DHT22;34866;48.670;18.260;2023-05-07T17:42:54;307.60;128.00
49052;DHT22;34866;48.670;18.260;2023-05-07T17:45:21;307.40;128.00
49052;DHT22;34866;48.670;18.260;2023-05-07T17:47:47;307.30;128.00
49052;DHT22;34866;48.670;18.260;2023-05-07T17:50:13;307.20;128.00
49052;DHT22;34866;48.670;18.260;2023-05-07T17:52:40;282.50;6528.00
49052;DHT22;34866;48.670;18.260;2023-05-07T17:55:07;282.40;6528.00
49052;DHT22;34866;48.670;18.260;2023-05-07T17:57:35;282.30;6528.00
49052;DHT22;34866;48.670;18.260;2023-05-07T18:00:03;282.40;6528.00
49052;DHT22;34866;48.670;18.260;2023-05-07T18:02:32;282.20;6528.00
49052;DHT22;34866;48.670;18.260;2023-05-07T18:04:58;282.20;6528.00
49052;DHT22;34866;48.670;18.260;2023-05-07T18:07:24;282.10;6528.00
49052;DHT22;34866;48.670;18.260;2023-05-07T18:09:50;282.00;6528.00
49052;DHT22;34866;48.670;18.260;2023-05-07T18:12:16;281.90;6528.00
49052;DHT22;34866;48.670;18.260;2023-05-07T18:14:42;282.00;6528.00
49052;DHT22;34866;48.670;18.260;2023-05-07T18:17:09;281.80;6528.00
49052;DHT22;34866;48.670;18.260;2023-05-07T18:19:35;281.80;6528.00
49052;DHT22;34866;48.670;18.260;2023-05-07T18:22:02;281.80;6528.00
49052;DHT22;34866;48.670;18.260;2023-05-07T18:24:27;281.70;6528.00
49052;DHT22;34866;48.670;18.260;2023-05-07T18:26:53;281.60;6528.00
49052;DHT22;34866;48.670;18.260;2023-05-07T18:29:19;281.60;6528.00
49052;DHT22;34866;48.670;18.260;2023-05-07T18:31:45;256.80;6502.40
49052;DHT22;34866;48.670;18.260;2023-05-07T18:34:11;256.80;6502.40
49052;DHT22;34866;48.670;18.260;2023-05-07T18:36:36;256.70;6502.40
49052;DHT22;34866;48.670;18.260;2023-05-07T18:39:05;256.60;6502.40